Araz River — UHYN — position and weather

sailwx.info

Track history (hours):
 
Tides and Currents Weather Stations Pressure Air Temp Water Temp Dewpoint Dewpoint Depression Visibility Wind Speed Wind Dir Waves Ship Positions

Araz River

Last reported at 2017-Oct-15 08:37 UTC. Time now 2017-Oct-19 16:50 UTC.
Position N 46°32' E 032°03'.

Length 140 m; draft 4.2 m.

Type: Ship. MMSI: 273339920.

Date/timePositionNaut miles runAvg speedWind from/ knotsBaromVisibWave heightAir tempDewpointWater temp
2017-Oct-15 08:37N 46°32' E 032°03'1 8.1
2017-Oct-15 08:30N 46°32' E 032°02'4 8.1
2017-Oct-15 08:00N 46°34' E 031°56'4 8.0
2017-Oct-15 07:29N 46°35' E 031°50'4 8.1
2017-Oct-15 07:00N 46°36' E 031°45'37 5.2
2017-Oct-14 23:53N 46°19' E 030°57'129 5.9
2017-Oct-14 02:09N 44°23' E 029°34'1 7.6
2017-Oct-14 02:00N 44°22' E 029°33'4 7.5
2017-Oct-14 01:30N 44°20' E 029°29'4 7.4
2017-Oct-14 01:00N 44°18' E 029°25'4 7.4
2017-Oct-14 00:30N 44°16' E 029°21'4 7.4
2017-Oct-14 00:00N 44°14' E 029°16'4 7.5
2017-Oct-13 23:31N 44°11' E 029°12'4 7.3
2017-Oct-13 23:00N 44°09' E 029°08'4 7.3
2017-Oct-13 22:30N 44°07' E 029°04'4 7.1
2017-Oct-13 22:00N 44°05' E 029°00'3 6.6
2017-Oct-13 21:30N 44°04' E 028°56'3 7.0
2017-Oct-13 21:01N 44°04' E 028°51'4 7.1
2017-Oct-13 20:30N 44°04' E 028°46'3 6.5
2017-Oct-13 20:01N 44°06' E 028°42'4 7.2
2017-Oct-13 19:30N 44°09' E 028°40'0 0.6
2017-Oct-13 18:59N 44°09' E 028°40'0 0.0
2017-Oct-13 18:26N 44°09' E 028°40'0 0.0
2017-Oct-13 17:59N 44°09' E 028°40'0 0.0
2017-Oct-13 17:29N 44°09' E 028°40'0 0.0
2017-Oct-13 16:59N 44°09' E 028°40'0 0.0
2017-Oct-13 16:29N 44°09' E 028°40'0 0.0
2017-Oct-13 15:59N 44°09' E 028°40'0 0.0
2017-Oct-13 15:29N 44°09' E 028°40'0 0.0
2017-Oct-13 14:59N 44°09' E 028°40'0 0.0
2017-Oct-13 14:29N 44°09' E 028°40'0 0.0
2017-Oct-13 13:59N 44°09' E 028°40'0 0.0
2017-Oct-13 13:29N 44°09' E 028°40'0 0.0
2017-Oct-13 12:59N 44°09' E 028°40'0 0.0
2017-Oct-13 12:29N 44°09' E 028°40'0 0.0
2017-Oct-13 11:59N 44°09' E 028°40'0 0.0
2017-Oct-13 11:29N 44°09' E 028°40'0 0.0
2017-Oct-13 10:59N 44°09' E 028°40'0 0.0
2017-Oct-13 10:29N 44°09' E 028°40'0 0.0
2017-Oct-13 09:59N 44°09' E 028°40'0 0.0
2017-Oct-13 09:29N 44°09' E 028°40'0 0.0
2017-Oct-13 08:59N 44°09' E 028°40'0 0.0
2017-Oct-13 08:26N 44°09' E 028°40'0 0.0
2017-Oct-13 07:56N 44°09' E 028°40'0 0.0
2017-Oct-13 07:29N 44°09' E 028°40'0 0.0
2017-Oct-13 06:59N 44°09' E 028°40'0 0.0
2017-Oct-13 06:29N 44°09' E 028°40'0 0.0
2017-Oct-13 05:59N 44°09' E 028°40'0 0.0
2017-Oct-13 05:23N 44°09' E 028°40'0 0.0
2017-Oct-13 04:56N 44°09' E 028°40'0 0.0
2017-Oct-13 04:29N 44°09' E 028°40'0 0.0
2017-Oct-13 03:59N 44°09' E 028°40'0 0.0
2017-Oct-13 03:29N 44°09' E 028°40'0 0.0
2017-Oct-13 02:59N 44°09' E 028°40'0 0.0
2017-Oct-13 02:26N 44°09' E 028°40'0 0.0
2017-Oct-13 01:59N 44°09' E 028°40'0 0.0
2017-Oct-13 01:29N 44°09' E 028°40'0 0.0
2017-Oct-13 00:59N 44°09' E 028°40'0 0.0
2017-Oct-13 00:29N 44°09' E 028°40'0 0.0
2017-Oct-12 23:59N 44°09' E 028°40'0 0.0
2017-Oct-12 23:29N 44°09' E 028°40'0 0.0
2017-Oct-12 22:59N 44°09' E 028°40'0 0.0
2017-Oct-12 22:29N 44°09' E 028°40'0 0.0
2017-Oct-12 21:59N 44°09' E 028°40'0 0.0
2017-Oct-12 21:29N 44°09' E 028°40'0 0.0
2017-Oct-12 20:59N 44°09' E 028°40'0 0.0
2017-Oct-12 20:26N 44°09' E 028°40'0 0.0
2017-Oct-12 19:59N 44°09' E 028°40'0 0.0
2017-Oct-12 19:20N 44°09' E 028°40'0 0.0
2017-Oct-12 18:59N 44°09' E 028°40'0 0.0
2017-Oct-12 18:29N 44°09' E 028°40'0 0.0
2017-Oct-12 17:56N 44°09' E 028°40'0 0.0
2017-Oct-12 17:29N 44°09' E 028°40'0 0.0
2017-Oct-12 16:59N 44°09' E 028°40'0 0.0
2017-Oct-12 16:29N 44°09' E 028°40'0 0.0
2017-Oct-12 15:56N 44°09' E 028°40'0 0.0
2017-Oct-12 15:29N 44°09' E 028°40'0 0.0
2017-Oct-12 14:59N 44°09' E 028°40'0 0.0
2017-Oct-12 14:29N 44°09' E 028°40'0 0.0
2017-Oct-12 13:59N 44°09' E 028°40'0 0.0
2017-Oct-12 13:29N 44°09' E 028°40'0 0.0
2017-Oct-12 12:59N 44°09' E 028°40'0 0.0
2017-Oct-12 12:26N 44°09' E 028°40'0 0.0
2017-Oct-12 11:50N 44°09' E 028°40'0 0.0
2017-Oct-12 11:29N 44°09' E 028°40'0 0.0
2017-Oct-12 10:59N 44°09' E 028°40'0 0.0
2017-Oct-12 10:29N 44°09' E 028°40'0 0.0
2017-Oct-12 09:59N 44°09' E 028°40'0 0.0
2017-Oct-12 09:29N 44°09' E 028°40'0 0.0
2017-Oct-12 08:56N 44°09' E 028°40'0 0.0
2017-Oct-12 08:29N 44°09' E 028°40'0 0.0
2017-Oct-12 07:56N 44°09' E 028°40'0 0.0
2017-Oct-12 07:29N 44°09' E 028°40'0 0.0
2017-Oct-12 06:59N 44°09' E 028°40'0 0.0
2017-Oct-12 06:29N 44°09' E 028°40'0 0.0
2017-Oct-12 05:59N 44°09' E 028°40'0 0.0
2017-Oct-12 05:26N 44°09' E 028°40'0 0.0
2017-Oct-12 04:59N 44°09' E 028°40'0 0.0
2017-Oct-12 04:29N 44°09' E 028°40'0 0.0
2017-Oct-12 03:56N 44°09' E 028°40'0 0.0
2017-Oct-12 03:29N 44°09' E 028°40'0 0.0
2017-Oct-12 02:59N 44°09' E 028°40'0 0.0
2017-Oct-12 02:29N 44°09' E 028°40'0 0.0
2017-Oct-12 01:59N 44°09' E 028°40'0 0.0
2017-Oct-12 01:29N 44°09' E 028°40'0 0.0
2017-Oct-12 00:59N 44°09' E 028°40'0 0.0
2017-Oct-12 00:29N 44°09' E 028°40'0 0.0
2017-Oct-11 23:59N 44°09' E 028°40'0 0.0
2017-Oct-11 23:29N 44°09' E 028°40'0 0.0
2017-Oct-11 22:59N 44°09' E 028°40'0 0.0
2017-Oct-11 22:29N 44°09' E 028°40'0 0.0
2017-Oct-11 21:59N 44°09' E 028°40'0 0.0
2017-Oct-11 21:30N 44°09' E 028°40'0 0.6
2017-Oct-11 21:00N 44°09' E 028°40'2 3.6
2017-Oct-11 20:30N 44°07' E 028°41'3 6.4
2017-Oct-11 20:00N 44°05' E 028°45'3 6.0
2017-Oct-11 19:30N 44°07' E 028°48'1 2.0
2017-Oct-11 18:59N 44°08' E 028°49'0 0.0
2017-Oct-11 18:29N 44°08' E 028°49'0 0.0
2017-Oct-11 17:59N 44°08' E 028°49'0 0.0
2017-Oct-11 17:29N 44°08' E 028°49'0 0.0
2017-Oct-11 16:59N 44°08' E 028°49'161 5.8
2017-Oct-10 13:31N 46°22' E 030°55'1 8.6
2017-Oct-10 13:23N 46°23' E 030°55'4 8.6
2017-Oct-10 12:58N 46°26' E 030°55'4 8.5
2017-Oct-10 12:30N 46°30' E 030°55'33 7.8
2017-Oct-10 08:18N 46°36' E 031°42'3 8.4
2017-Oct-10 07:59N 46°36' E 031°46'4 8.1
2017-Oct-10 07:30N 46°35' E 031°52'4 8.4
2017-Oct-10 07:00N 46°33' E 031°58'4 8.5
2017-Oct-10 06:30N 46°32' E 032°03'4 8.3
2017-Oct-10 06:00N 46°32' E 032°09'4 8.6
2017-Oct-10 05:30N 46°33' E 032°16'4 8.3
2017-Oct-10 05:01N 46°33' E 032°22'13 0.3
2017-Oct-08 09:39N 46°32' E 032°03'1 7.5
2017-Oct-08 09:30N 46°33' E 032°01'4 7.4
2017-Oct-08 09:00N 46°34' E 031°56'4 7.4
2017-Oct-08 08:29N 46°35' E 031°51'3 6.7
2017-Oct-08 07:58N 46°36' E 031°46'2 4.5
2017-Oct-08 07:29N 46°36' E 031°43'3 4.7
2017-Oct-08 06:54N 46°36' E 031°39'2 4.9
2017-Oct-08 06:30N 46°35' E 031°36'5 6.1
2017-Oct-08 05:37N 46°35' E 031°28'208 4.6
2017-Oct-06 08:17N 43°16' E 030°04'2 8.3
2017-Oct-06 08:00N 43°14' E 030°03'4 8.3
2017-Oct-06 07:30N 43°10' E 030°02'6 8.4
2017-Oct-06 06:51N 43°05' E 029°59'7 8.6
2017-Oct-06 06:03N 42°58' E 029°57'1 8.5
2017-Oct-06 05:55N 42°57' E 029°56'4 8.5
2017-Oct-06 05:30N 42°54' E 029°55'4 8.4
2017-Oct-06 05:00N 42°50' E 029°53'8 8.4
2017-Oct-06 04:05N 42°43' E 029°50'2 8.4
2017-Oct-06 03:52N 42°41' E 029°49'4 8.4
2017-Oct-06 03:21N 42°37' E 029°47'4 8.5
2017-Oct-06 02:54N 42°33' E 029°46'100 8.0
2017-Oct-05 14:18N 40°59' E 028°60'  
Track history (hours):
 
Tides and Currents Weather Stations Pressure Air Temp Water Temp Dewpoint Dewpoint Depression Visibility Wind Speed Wind Dir Waves Ship Positions

Araz River

Last reported at 2017-Oct-15 08:37 UTC. Time now 2017-Oct-19 16:50 UTC.
Position N 46°32' E 032°03'.

Length 140 m; draft 4.2 m.

Type: Ship. MMSI: 273339920.

Date/timePositionNaut miles runAvg speedWind from/ knotsBaromVisibWave heightAir tempDewpointWater temp
2017-Oct-15 08:37N 46°32' E 032°03'1 8.1
2017-Oct-15 08:30N 46°32' E 032°02'4 8.1
2017-Oct-15 08:00N 46°34' E 031°56'4 8.0
2017-Oct-15 07:29N 46°35' E 031°50'4 8.1
2017-Oct-15 07:00N 46°36' E 031°45'37 5.2
2017-Oct-14 23:53N 46°19' E 030°57'129 5.9
2017-Oct-14 02:09N 44°23' E 029°34'1 7.6
2017-Oct-14 02:00N 44°22' E 029°33'4 7.5
2017-Oct-14 01:30N 44°20' E 029°29'4 7.4
2017-Oct-14 01:00N 44°18' E 029°25'4 7.4
2017-Oct-14 00:30N 44°16' E 029°21'4 7.4
2017-Oct-14 00:00N 44°14' E 029°16'4 7.5
2017-Oct-13 23:31N 44°11' E 029°12'4 7.3
2017-Oct-13 23:00N 44°09' E 029°08'4 7.3
2017-Oct-13 22:30N 44°07' E 029°04'4 7.1
2017-Oct-13 22:00N 44°05' E 029°00'3 6.6
2017-Oct-13 21:30N 44°04' E 028°56'3 7.0
2017-Oct-13 21:01N 44°04' E 028°51'4 7.1
2017-Oct-13 20:30N 44°04' E 028°46'3 6.5
2017-Oct-13 20:01N 44°06' E 028°42'4 7.2
2017-Oct-13 19:30N 44°09' E 028°40'0 0.6
2017-Oct-13 18:59N 44°09' E 028°40'0 0.0
2017-Oct-13 18:26N 44°09' E 028°40'0 0.0
2017-Oct-13 17:59N 44°09' E 028°40'0 0.0
2017-Oct-13 17:29N 44°09' E 028°40'0 0.0
2017-Oct-13 16:59N 44°09' E 028°40'0 0.0
2017-Oct-13 16:29N 44°09' E 028°40'0 0.0
2017-Oct-13 15:59N 44°09' E 028°40'0 0.0
2017-Oct-13 15:29N 44°09' E 028°40'0 0.0
2017-Oct-13 14:59N 44°09' E 028°40'0 0.0
2017-Oct-13 14:29N 44°09' E 028°40'0 0.0
2017-Oct-13 13:59N 44°09' E 028°40'0 0.0
2017-Oct-13 13:29N 44°09' E 028°40'0 0.0
2017-Oct-13 12:59N 44°09' E 028°40'0 0.0
2017-Oct-13 12:29N 44°09' E 028°40'0 0.0
2017-Oct-13 11:59N 44°09' E 028°40'0 0.0
2017-Oct-13 11:29N 44°09' E 028°40'0 0.0
2017-Oct-13 10:59N 44°09' E 028°40'0 0.0
2017-Oct-13 10:29N 44°09' E 028°40'0 0.0
2017-Oct-13 09:59N 44°09' E 028°40'0 0.0
2017-Oct-13 09:29N 44°09' E 028°40'0 0.0
2017-Oct-13 08:59N 44°09' E 028°40'0 0.0
2017-Oct-13 08:26N 44°09' E 028°40'0 0.0
2017-Oct-13 07:56N 44°09' E 028°40'0 0.0
2017-Oct-13 07:29N 44°09' E 028°40'0 0.0
2017-Oct-13 06:59N 44°09' E 028°40'0 0.0
2017-Oct-13 06:29N 44°09' E 028°40'0 0.0
2017-Oct-13 05:59N 44°09' E 028°40'0 0.0
2017-Oct-13 05:23N 44°09' E 028°40'0 0.0
2017-Oct-13 04:56N 44°09' E 028°40'0 0.0
2017-Oct-13 04:29N 44°09' E 028°40'0 0.0
2017-Oct-13 03:59N 44°09' E 028°40'0 0.0
2017-Oct-13 03:29N 44°09' E 028°40'0 0.0
2017-Oct-13 02:59N 44°09' E 028°40'0 0.0
2017-Oct-13 02:26N 44°09' E 028°40'0 0.0
2017-Oct-13 01:59N 44°09' E 028°40'0 0.0
2017-Oct-13 01:29N 44°09' E 028°40'0 0.0
2017-Oct-13 00:59N 44°09' E 028°40'0 0.0
2017-Oct-13 00:29N 44°09' E 028°40'0 0.0
2017-Oct-12 23:59N 44°09' E 028°40'0 0.0
2017-Oct-12 23:29N 44°09' E 028°40'0 0.0
2017-Oct-12 22:59N 44°09' E 028°40'0 0.0
2017-Oct-12 22:29N 44°09' E 028°40'0 0.0
2017-Oct-12 21:59N 44°09' E 028°40'0 0.0
2017-Oct-12 21:29N 44°09' E 028°40'0 0.0
2017-Oct-12 20:59N 44°09' E 028°40'0 0.0
2017-Oct-12 20:26N 44°09' E 028°40'0 0.0
2017-Oct-12 19:59N 44°09' E 028°40'0 0.0
2017-Oct-12 19:20N 44°09' E 028°40'0 0.0
2017-Oct-12 18:59N 44°09' E 028°40'0 0.0
2017-Oct-12 18:29N 44°09' E 028°40'0 0.0
2017-Oct-12 17:56N 44°09' E 028°40'0 0.0
2017-Oct-12 17:29N 44°09' E 028°40'0 0.0
2017-Oct-12 16:59N 44°09' E 028°40'0 0.0
2017-Oct-12 16:29N 44°09' E 028°40'0 0.0
2017-Oct-12 15:56N 44°09' E 028°40'0 0.0
2017-Oct-12 15:29N 44°09' E 028°40'0 0.0
2017-Oct-12 14:59N 44°09' E 028°40'0 0.0
2017-Oct-12 14:29N 44°09' E 028°40'0 0.0
2017-Oct-12 13:59N 44°09' E 028°40'0 0.0
2017-Oct-12 13:29N 44°09' E 028°40'0 0.0
2017-Oct-12 12:59N 44°09' E 028°40'0 0.0
2017-Oct-12 12:26N 44°09' E 028°40'0 0.0
2017-Oct-12 11:50N 44°09' E 028°40'0 0.0
2017-Oct-12 11:29N 44°09' E 028°40'0 0.0
2017-Oct-12 10:59N 44°09' E 028°40'0 0.0
2017-Oct-12 10:29N 44°09' E 028°40'0 0.0
2017-Oct-12 09:59N 44°09' E 028°40'0 0.0
2017-Oct-12 09:29N 44°09' E 028°40'0 0.0
2017-Oct-12 08:56N 44°09' E 028°40'0 0.0
2017-Oct-12 08:29N 44°09' E 028°40'0 0.0
2017-Oct-12 07:56N 44°09' E 028°40'0 0.0
2017-Oct-12 07:29N 44°09' E 028°40'0 0.0
2017-Oct-12 06:59N 44°09' E 028°40'0 0.0
2017-Oct-12 06:29N 44°09' E 028°40'0 0.0
2017-Oct-12 05:59N 44°09' E 028°40'0 0.0
2017-Oct-12 05:26N 44°09' E 028°40'0 0.0
2017-Oct-12 04:59N 44°09' E 028°40'0 0.0
2017-Oct-12 04:29N 44°09' E 028°40'0 0.0
2017-Oct-12 03:56N 44°09' E 028°40'0 0.0
2017-Oct-12 03:29N 44°09' E 028°40'0 0.0
2017-Oct-12 02:59N 44°09' E 028°40'0 0.0
2017-Oct-12 02:29N 44°09' E 028°40'0 0.0
2017-Oct-12 01:59N 44°09' E 028°40'0 0.0
2017-Oct-12 01:29N 44°09' E 028°40'0 0.0
2017-Oct-12 00:59N 44°09' E 028°40'0 0.0
2017-Oct-12 00:29N 44°09' E 028°40'0 0.0
2017-Oct-11 23:59N 44°09' E 028°40'0 0.0
2017-Oct-11 23:29N 44°09' E 028°40'0 0.0
2017-Oct-11 22:59N 44°09' E 028°40'0 0.0
2017-Oct-11 22:29N 44°09' E 028°40'0 0.0
2017-Oct-11 21:59N 44°09' E 028°40'0 0.0
2017-Oct-11 21:30N 44°09' E 028°40'0 0.6
2017-Oct-11 21:00N 44°09' E 028°40'2 3.6
2017-Oct-11 20:30N 44°07' E 028°41'3 6.4
2017-Oct-11 20:00N 44°05' E 028°45'3 6.0
2017-Oct-11 19:30N 44°07' E 028°48'1 2.0
2017-Oct-11 18:59N 44°08' E 028°49'0 0.0
2017-Oct-11 18:29N 44°08' E 028°49'0 0.0
2017-Oct-11 17:59N 44°08' E 028°49'0 0.0
2017-Oct-11 17:29N 44°08' E 028°49'0 0.0
2017-Oct-11 16:59N 44°08' E 028°49'161 5.8
2017-Oct-10 13:31N 46°22' E 030°55'1 8.6
2017-Oct-10 13:23N 46°23' E 030°55'4 8.6
2017-Oct-10 12:58N 46°26' E 030°55'4 8.5
2017-Oct-10 12:30N 46°30' E 030°55'33 7.8
2017-Oct-10 08:18N 46°36' E 031°42'3 8.4
2017-Oct-10 07:59N 46°36' E 031°46'4 8.1
2017-Oct-10 07:30N 46°35' E 031°52'4 8.4
2017-Oct-10 07:00N 46°33' E 031°58'4 8.5
2017-Oct-10 06:30N 46°32' E 032°03'4 8.3
2017-Oct-10 06:00N 46°32' E 032°09'4 8.6
2017-Oct-10 05:30N 46°33' E 032°16'4 8.3
2017-Oct-10 05:01N 46°33' E 032°22'13 0.3
2017-Oct-08 09:39N 46°32' E 032°03'1 7.5
2017-Oct-08 09:30N 46°33' E 032°01'4 7.4
2017-Oct-08 09:00N 46°34' E 031°56'4 7.4
2017-Oct-08 08:29N 46°35' E 031°51'3 6.7
2017-Oct-08 07:58N 46°36' E 031°46'2 4.5
2017-Oct-08 07:29N 46°36' E 031°43'3 4.7
2017-Oct-08 06:54N 46°36' E 031°39'2 4.9
2017-Oct-08 06:30N 46°35' E 031°36'5 6.1
2017-Oct-08 05:37N 46°35' E 031°28'208 4.6
2017-Oct-06 08:17N 43°16' E 030°04'2 8.3
2017-Oct-06 08:00N 43°14' E 030°03'4 8.3
2017-Oct-06 07:30N 43°10' E 030°02'6 8.4
2017-Oct-06 06:51N 43°05' E 029°59'7 8.6
2017-Oct-06 06:03N 42°58' E 029°57'1 8.5
2017-Oct-06 05:55N 42°57' E 029°56'4 8.5
2017-Oct-06 05:30N 42°54' E 029°55'4 8.4
2017-Oct-06 05:00N 42°50' E 029°53'8 8.4
2017-Oct-06 04:05N 42°43' E 029°50'2 8.4
2017-Oct-06 03:52N 42°41' E 029°49'4 8.4
2017-Oct-06 03:21N 42°37' E 029°47'4 8.5
2017-Oct-06 02:54N 42°33' E 029°46'100 8.0
2017-Oct-05 14:18N 40°59' E 028°60'  

Dump ship's entire track history